createdAt,value
2018-04-22T00:02:29.273Z,14.63
2018-04-22T00:04:58.095Z,15.30
2018-04-22T00:07:26.961Z,14.23
2018-04-22T00:09:56.670Z,12.07
2018-04-22T00:12:25.474Z,12.87
2018-04-22T00:14:54.363Z,13.40
2018-04-22T00:17:23.246Z,13.00
2018-04-22T00:19:52.070Z,12.77
2018-04-22T00:22:20.903Z,11.50
2018-04-22T00:24:49.708Z,12.47
2018-04-22T00:27:18.535Z,19.30
2018-04-22T00:29:47.601Z,15.13
2018-04-22T00:32:16.485Z,12.73
2018-04-22T00:34:45.314Z,16.60
2018-04-22T00:37:14.774Z,15.03
2018-04-22T00:39:43.664Z,15.50
2018-04-22T00:42:12.510Z,14.50
2018-04-22T00:44:41.358Z,14.60
2018-04-22T00:47:10.166Z,14.93
2018-04-22T00:49:39.239Z,14.90
2018-04-22T00:52:08.039Z,13.83
2018-04-22T00:54:36.845Z,16.87
2018-04-22T00:57:05.706Z,16.10
2018-04-22T00:59:34.500Z,13.17
2018-04-22T01:02:03.387Z,15.63
2018-04-22T01:04:32.480Z,19.37
2018-04-22T01:07:01.377Z,15.03
2018-04-22T01:09:31.701Z,16.33
2018-04-22T01:12:00.549Z,14.87
2018-04-22T01:14:29.350Z,18.17
2018-04-22T01:16:58.150Z,15.47
2018-04-22T01:19:26.994Z,17.37
2018-04-22T01:21:55.809Z,15.57
2018-04-22T01:24:24.642Z,14.97
2018-04-22T01:26:54.152Z,14.73
2018-04-22T01:29:22.957Z,15.17
2018-04-22T01:31:51.753Z,14.87
2018-04-22T01:34:20.822Z,14.80
2018-04-22T01:36:49.630Z,17.37
2018-04-22T01:39:18.436Z,15.27
2018-04-22T01:41:47.599Z,15.30
2018-04-22T01:44:16.390Z,16.20
2018-04-22T01:46:45.198Z,13.63
2018-04-22T01:49:14.060Z,14.87
2018-04-22T01:51:42.858Z,13.73
2018-04-22T01:54:11.749Z,16.87
2018-04-22T01:56:40.589Z,16.23
2018-04-22T01:59:09.389Z,15.73
2018-04-22T02:01:38.242Z,13.60
2018-04-22T02:04:07.101Z,15.03
2018-04-22T02:06:36.001Z,16.40
2018-04-22T02:09:06.518Z,14.80
2018-04-22T02:11:35.321Z,16.97
2018-04-22T02:14:04.140Z,16.83
2018-04-22T02:16:32.972Z,15.37
2018-04-22T02:19:01.759Z,17.27
2018-04-22T02:21:30.567Z,18.90
2018-04-22T02:23:59.421Z,19.73
2018-04-22T02:26:28.210Z,15.00
2018-04-22T02:28:57.006Z,13.37
2018-04-22T02:31:25.822Z,14.07
2018-04-22T02:33:54.715Z,14.90
2018-04-22T02:36:23.607Z,15.57
2018-04-22T02:38:52.498Z,15.33
2018-04-22T02:41:21.318Z,20.13
2018-04-22T02:43:50.162Z,17.63
2018-04-22T02:46:19.074Z,15.53
2018-04-22T02:48:47.874Z,19.13
2018-04-22T02:51:16.971Z,16.17
2018-04-22T02:53:45.850Z,16.47
2018-04-22T02:56:14.643Z,15.90
2018-04-22T02:58:43.516Z,17.03
2018-04-22T03:01:12.319Z,17.70
2018-04-22T03:03:41.122Z,14.80
2018-04-22T03:06:10.425Z,15.07
2018-04-22T03:08:39.311Z,18.53
2018-04-22T03:11:08.618Z,15.43
2018-04-22T03:13:37.438Z,16.37
2018-04-22T03:16:06.244Z,16.33
2018-04-22T03:18:35.066Z,17.00
2018-04-22T03:21:03.871Z,18.60
2018-04-22T03:23:33.366Z,17.57
2018-04-22T03:26:02.171Z,17.60
2018-04-22T03:28:31.018Z,19.50
2018-04-22T03:30:59.835Z,17.20
2018-04-22T03:33:28.630Z,18.63
2018-04-22T03:35:57.509Z,18.70
2018-04-22T03:38:26.306Z,18.23
2018-04-22T03:40:55.205Z,17.07
2018-04-22T03:43:24.078Z,15.80
2018-04-22T03:45:52.894Z,17.57
2018-04-22T03:48:21.681Z,15.43
2018-04-22T03:50:50.570Z,18.67
2018-04-22T03:53:19.362Z,16.27
2018-04-22T03:55:48.194Z,18.13
2018-04-22T03:58:17.422Z,15.90
2018-04-22T04:00:46.315Z,16.00
2018-04-22T04:03:15.114Z,16.07
2018-04-22T04:05:43.950Z,18.50
2018-04-22T04:08:14.214Z,21.43
2018-04-22T04:10:43.030Z,18.73
2018-04-22T04:13:11.862Z,17.67
2018-04-22T04:15:40.682Z,19.33
2018-04-22T04:18:24.431Z,20.03
2018-04-22T04:20:59.059Z,20.20
2018-04-22T04:23:34.500Z,18.93
2018-04-22T04:26:09.135Z,16.67
2018-04-22T04:28:38.014Z,17.93
2018-04-22T04:31:06.918Z,20.23
2018-04-22T04:33:35.791Z,17.80
2018-04-22T04:36:04.663Z,16.23
2018-04-22T04:38:33.433Z,17.73
2018-04-22T04:41:02.275Z,19.97
2018-04-22T04:43:31.210Z,16.83
2018-04-22T04:45:59.963Z,16.83
2018-04-22T04:48:28.758Z,20.20
2018-04-22T04:50:57.618Z,17.20
2018-04-22T04:53:26.423Z,15.93
2018-04-22T04:55:55.223Z,17.87
2018-04-22T04:58:24.294Z,16.80
2018-04-22T05:00:53.096Z,16.33
2018-04-22T05:03:21.902Z,18.00
2018-04-22T05:05:50.739Z,17.03
2018-04-22T05:08:19.535Z,16.33
2018-04-22T05:10:48.335Z,16.83
2018-04-22T05:13:17.857Z,16.90
2018-04-22T05:15:46.745Z,18.40
2018-04-22T05:18:15.558Z,16.13
2018-04-22T05:20:45.034Z,18.23
2018-04-22T05:23:13.931Z,15.67
2018-04-22T05:25:42.730Z,16.20
2018-04-22T05:28:11.585Z,19.80
2018-04-22T05:30:40.383Z,19.13
2018-04-22T05:33:09.181Z,18.93
2018-04-22T05:35:38.016Z,16.67
2018-04-22T05:38:06.813Z,18.40
2018-04-22T05:40:35.618Z,17.97
2018-04-22T05:43:05.574Z,16.70
2018-04-22T05:45:34.379Z,16.50
2018-04-22T05:48:03.247Z,17.40
2018-04-22T05:50:32.142Z,17.73
2018-04-22T05:53:00.942Z,17.40
2018-04-22T05:55:29.826Z,19.10
2018-04-22T05:57:58.718Z,18.60
2018-04-22T06:00:27.606Z,17.10
2018-04-22T06:02:57.106Z,20.10
2018-04-22T06:05:25.912Z,17.27
2018-04-22T06:07:54.732Z,20.03
2018-04-22T06:10:23.603Z,19.73
2018-04-22T06:12:52.905Z,18.80
2018-04-22T06:15:21.704Z,21.30
2018-04-22T06:17:50.542Z,18.97
2018-04-22T06:20:19.351Z,21.10
2018-04-22T06:22:49.364Z,21.47
2018-04-22T06:25:18.146Z,19.73
2018-04-22T06:27:46.958Z,22.87
2018-04-22T06:30:15.841Z,22.97
2018-04-22T06:32:44.650Z,22.13
2018-04-22T06:35:13.521Z,21.40
2018-04-22T06:37:42.323Z,22.20
2018-04-22T06:40:11.158Z,21.73
2018-04-22T06:42:39.987Z,21.40
2018-04-22T06:45:08.789Z,22.27
2018-04-22T06:47:37.873Z,25.87
2018-04-22T06:50:06.695Z,20.77
2018-04-22T06:52:35.484Z,21.43
2018-04-22T06:55:04.444Z,21.40
2018-04-22T06:57:33.241Z,20.50
2018-04-22T07:00:02.048Z,21.43
2018-04-22T07:02:31.214Z,22.30
2018-04-22T07:05:00.111Z,21.57
2018-04-22T07:07:29.847Z,20.70
2018-04-22T07:09:59.521Z,21.93
2018-04-22T07:12:28.350Z,22.40
2018-04-22T07:14:57.159Z,21.67
2018-04-22T07:17:25.979Z,20.73
2018-04-22T07:19:54.763Z,20.30
2018-04-22T07:22:23.590Z,20.93
2018-04-22T07:24:52.408Z,22.90
2018-04-22T07:27:21.210Z,22.23
2018-04-22T07:29:51.698Z,22.80
2018-04-22T07:32:20.498Z,22.47
2018-04-22T07:34:49.294Z,22.77
2018-04-22T07:37:18.390Z,20.77
2018-04-22T07:39:47.201Z,22.90
2018-04-22T07:42:16.034Z,22.07
2018-04-22T07:44:45.745Z,23.33
2018-04-22T07:47:14.546Z,21.93
2018-04-22T07:49:43.423Z,21.47
2018-04-22T07:52:12.282Z,20.57
2018-04-22T07:54:41.110Z,21.43
2018-04-22T07:57:09.977Z,22.63
2018-04-22T07:59:38.819Z,20.03
2018-04-22T08:02:07.621Z,21.20
2018-04-22T08:04:36.433Z,19.33
2018-04-22T08:07:06.703Z,18.57
2018-04-22T08:09:35.510Z,22.80
2018-04-22T08:12:04.307Z,18.83
2018-04-22T08:14:33.240Z,19.20
2018-04-22T08:17:02.043Z,16.47
2018-04-22T08:19:31.071Z,16.50
2018-04-22T08:21:59.873Z,18.67
2018-04-22T08:24:28.685Z,17.17
2018-04-22T08:26:57.509Z,15.47
2018-04-22T08:29:26.322Z,17.90
2018-04-22T08:31:55.167Z,12.53
2018-04-22T08:34:23.985Z,12.93
2018-04-22T08:36:52.786Z,13.77
2018-04-22T08:39:21.614Z,17.87
2018-04-22T08:41:50.416Z,10.83
2018-04-22T08:44:19.962Z,11.70
2018-04-22T08:46:48.753Z,14.27
2018-04-22T08:49:17.557Z,12.33
2018-04-22T08:51:46.388Z,13.27
2018-04-22T08:54:15.196Z,12.27
2018-04-22T08:56:44.051Z,12.90
2018-04-22T08:59:12.861Z,14.97
2018-04-22T09:01:41.656Z,10.73
2018-04-22T09:04:10.458Z,12.17
2018-04-22T09:06:40.086Z,12.57
2018-04-22T09:09:10.733Z,7.33
2018-04-22T09:11:39.541Z,10.40
2018-04-22T09:14:08.405Z,11.90
2018-04-22T09:16:37.198Z,9.73
2018-04-22T09:19:06.071Z,10.13
2018-04-22T09:21:34.955Z,8.40
2018-04-22T09:24:03.747Z,10.37
2018-04-22T09:26:32.560Z,10.23
2018-04-22T09:29:02.060Z,12.53
2018-04-22T09:31:30.866Z,6.87
2018-04-22T09:33:59.722Z,9.27
2018-04-22T09:36:28.619Z,9.20
2018-04-22T09:38:57.413Z,7.87
2018-04-22T09:41:26.214Z,11.27
2018-04-22T09:43:55.096Z,7.97
2018-04-22T09:46:23.891Z,6.67
2018-04-22T09:48:52.687Z,9.80
2018-04-22T09:51:21.601Z,8.50
2018-04-22T09:53:50.410Z,10.60
2018-04-22T09:56:19.233Z,8.57
2018-04-22T09:58:48.029Z,11.03
2018-04-22T10:01:19.723Z,7.93
2018-04-22T10:03:48.550Z,6.95
2018-04-22T10:06:17.367Z,5.70
2018-04-22T10:08:46.598Z,6.40
2018-04-22T10:11:15.410Z,8.43
2018-04-22T10:13:44.242Z,8.57
2018-04-22T10:16:14.042Z,7.05
2018-04-22T10:18:42.838Z,8.27
2018-04-22T10:21:11.691Z,9.75
2018-04-22T10:23:40.489Z,8.50
2018-04-22T10:26:09.302Z,5.20
2018-04-22T10:28:39.333Z,7.50
2018-04-22T10:31:08.218Z,10.10
2018-04-22T10:33:37.022Z,12.07
2018-04-22T10:36:06.110Z,14.43
2018-04-22T10:38:34.921Z,8.43
2018-04-22T10:41:03.786Z,10.20
2018-04-22T10:43:32.631Z,7.90
2018-04-22T10:46:01.433Z,8.52
2018-04-22T10:48:30.238Z,7.80
2018-04-22T10:50:59.245Z,6.25
2018-04-22T10:53:28.046Z,10.45
2018-04-22T10:55:56.846Z,5.62
2018-04-22T10:58:25.687Z,7.68
2018-04-22T11:00:54.474Z,8.80
2018-04-22T11:03:23.291Z,7.95
2018-04-22T11:05:52.798Z,8.98
2018-04-22T11:08:21.607Z,7.80
2018-04-22T11:10:50.436Z,7.03
2018-04-22T11:13:19.286Z,9.20
2018-04-22T11:15:48.989Z,18.15
2018-04-22T11:18:17.879Z,8.30
2018-04-22T11:20:46.726Z,5.45
2018-04-22T11:23:15.526Z,9.05
2018-04-22T11:25:44.341Z,5.90
2018-04-22T11:28:14.150Z,14.25
2018-04-22T11:30:43.033Z,9.38
2018-04-22T11:33:11.845Z,8.60
2018-04-22T11:35:40.709Z,6.15
2018-04-22T11:38:09.511Z,9.13
2018-04-22T11:40:38.402Z,13.40
2018-04-22T11:43:07.300Z,8.57
2018-04-22T11:45:36.189Z,4.80
2018-04-22T11:48:04.990Z,6.20
2018-04-22T11:50:34.074Z,7.65
2018-04-22T11:53:02.862Z,7.70
2018-04-22T11:55:31.657Z,6.78
2018-04-22T11:58:00.546Z,8.65
2018-04-22T12:00:29.345Z,4.32
2018-04-22T12:02:58.226Z,5.12
2018-04-22T12:05:30.798Z,6.30
2018-04-22T12:08:01.132Z,8.25
2018-04-22T12:10:30.115Z,6.43
2018-04-22T12:12:58.913Z,7.85
2018-04-22T12:15:27.740Z,5.40
2018-04-22T12:17:56.562Z,4.10
2018-04-22T12:20:25.407Z,6.32
2018-04-22T12:22:54.222Z,5.20
2018-04-22T12:25:23.058Z,21.50
2018-04-22T12:27:51.859Z,5.72
2018-04-22T12:30:20.722Z,4.60
2018-04-22T12:32:49.529Z,8.35
2018-04-22T12:35:18.430Z,4.55
2018-04-22T12:37:47.321Z,11.15
2018-04-22T12:40:16.082Z,5.72
2018-04-22T12:42:44.882Z,5.47
2018-04-22T12:45:14.121Z,15.30
2018-04-22T12:47:42.927Z,29.90
2018-04-22T12:50:11.726Z,6.45
2018-04-22T12:52:40.553Z,8.00
2018-04-22T12:55:09.351Z,6.93
2018-04-22T12:57:38.198Z,4.75
2018-04-22T13:00:06.995Z,7.68
2018-04-22T13:02:35.787Z,6.45
2018-04-22T13:05:04.647Z,8.10
2018-04-22T13:07:33.463Z,6.68
2018-04-22T13:10:02.978Z,12.82
2018-04-22T13:12:31.845Z,7.55
2018-04-22T13:15:00.670Z,6.07
2018-04-22T13:17:29.462Z,4.05
2018-04-22T13:19:58.662Z,6.57
2018-04-22T13:22:27.458Z,9.00
2018-04-22T13:24:56.343Z,6.37
2018-04-22T13:27:25.155Z,5.70
2018-04-22T13:29:54.022Z,8.23
2018-04-22T13:32:22.910Z,5.35
2018-04-22T13:34:51.714Z,25.52
2018-04-22T13:37:20.587Z,6.87
2018-04-22T13:39:50.510Z,5.10
2018-04-22T13:42:19.330Z,11.23
2018-04-22T13:44:48.132Z,8.65
2018-04-22T13:47:17.482Z,4.82
2018-04-22T13:49:46.276Z,8.02
2018-04-22T13:52:15.175Z,7.10
2018-04-22T13:54:44.372Z,11.32
2018-04-22T13:57:13.284Z,9.98
2018-04-22T13:59:42.160Z,8.93
2018-04-22T14:02:11.045Z,8.32
2018-04-22T14:04:39.934Z,6.60
2018-04-22T14:07:08.743Z,11.98
2018-04-22T14:09:39.037Z,6.50
2018-04-22T14:12:08.993Z,5.82
2018-04-22T14:14:37.846Z,7.28
2018-04-22T14:17:06.643Z,5.53
2018-04-22T14:19:35.537Z,9.13
2018-04-22T14:22:04.735Z,4.60
2018-04-22T14:24:33.533Z,8.00
2018-04-22T14:27:02.409Z,7.18
2018-04-22T14:29:31.231Z,5.70
2018-04-22T14:32:00.059Z,6.28
2018-04-22T14:34:29.216Z,9.80
2018-04-22T14:36:58.074Z,7.55
2018-04-22T14:39:26.869Z,6.85
2018-04-22T14:41:55.756Z,5.22
2018-04-22T14:44:30.891Z,6.55
2018-04-22T14:46:59.783Z,6.05
2018-04-22T14:49:28.673Z,8.38
2018-04-22T14:51:57.515Z,4.25
2018-04-22T14:54:26.334Z,11.65
2018-04-22T14:56:55.118Z,6.22
2018-04-22T14:59:23.966Z,4.80
2018-04-22T15:01:52.823Z,6.05
2018-04-22T15:04:21.622Z,6.93
2018-04-22T15:06:51.945Z,4.62
2018-04-22T15:09:20.746Z,6.87
2018-04-22T15:11:49.626Z,8.15
2018-04-22T15:14:19.118Z,6.40
2018-04-22T15:16:47.906Z,6.03
2018-04-22T15:19:16.703Z,11.25
2018-04-22T15:21:45.594Z,3.78
2018-04-22T15:24:14.479Z,6.45
2018-04-22T15:26:43.286Z,6.95
2018-04-22T15:29:12.146Z,5.55
2018-04-22T15:31:40.954Z,6.32
2018-04-22T15:34:09.762Z,8.80
2018-04-22T15:36:38.584Z,5.30
2018-04-22T15:39:07.408Z,5.57
2018-04-22T15:41:36.242Z,6.12
2018-04-22T15:44:05.053Z,6.80
2018-04-22T15:46:33.855Z,5.50
2018-04-22T15:49:02.742Z,6.53
2018-04-22T15:51:31.559Z,10.00
2018-04-22T15:54:00.354Z,4.65
2018-04-22T15:56:29.463Z,11.10
2018-04-22T15:58:58.277Z,4.05
2018-04-22T16:01:27.087Z,6.87
2018-04-22T16:03:56.543Z,5.03
2018-04-22T16:06:25.451Z,5.95
2018-04-22T16:08:54.279Z,7.00
2018-04-22T16:11:23.111Z,6.22
2018-04-22T16:13:51.967Z,6.25
2018-04-22T16:16:21.585Z,6.28
2018-04-22T16:18:50.392Z,4.82
2018-04-22T16:21:19.603Z,6.68
2018-04-22T16:23:48.394Z,5.57
2018-04-22T16:26:17.198Z,6.62
2018-04-22T16:28:46.376Z,6.72
2018-04-22T16:31:15.186Z,8.25
2018-04-22T16:33:43.966Z,4.80
2018-04-22T16:36:12.808Z,6.20
2018-04-22T16:38:41.639Z,5.75
2018-04-22T16:41:11.138Z,9.32
2018-04-22T16:43:39.942Z,6.07
2018-04-22T16:46:08.743Z,9.40
2018-04-22T16:48:37.600Z,5.03
2018-04-22T16:51:06.514Z,9.07
2018-04-22T16:53:35.395Z,5.93
2018-04-22T16:56:04.489Z,5.50
2018-04-22T16:58:33.383Z,6.62
2018-04-22T17:01:02.201Z,8.63
2018-04-22T17:03:31.017Z,7.75
2018-04-22T17:05:59.807Z,8.27
2018-04-22T17:08:29.566Z,5.30
2018-04-22T17:10:58.362Z,8.82
2018-04-22T17:13:27.184Z,7.62
2018-04-22T17:15:56.038Z,6.37
2018-04-22T17:18:24.973Z,7.87
2018-04-22T17:20:53.779Z,7.20
2018-04-22T17:23:22.611Z,13.85
2018-04-22T17:25:51.408Z,7.15
2018-04-22T17:28:20.208Z,8.95
2018-04-22T17:30:49.078Z,6.32
2018-04-22T17:33:17.890Z,7.32
2018-04-22T17:35:46.719Z,10.25
2018-04-22T17:38:15.533Z,9.55
2018-04-22T17:40:44.390Z,6.95
2018-04-22T17:43:13.197Z,8.15
2018-04-22T17:45:41.994Z,5.50
2018-04-22T17:48:11.800Z,4.50
2018-04-22T17:50:40.598Z,6.25
2018-04-22T17:53:09.400Z,10.20
2018-04-22T17:55:38.384Z,10.07
2018-04-22T17:58:07.184Z,7.30
2018-04-22T18:00:36.055Z,8.95
2018-04-22T18:03:06.195Z,6.28
2018-04-22T18:05:35.007Z,4.30
2018-04-22T18:08:03.830Z,7.57
2018-04-22T18:10:32.858Z,4.07
2018-04-22T18:13:01.661Z,5.28
2018-04-22T18:15:30.468Z,7.05
2018-04-22T18:17:59.431Z,6.22
2018-04-22T18:20:28.896Z,5.62
2018-04-22T18:22:57.701Z,6.60
2018-04-22T18:25:27.423Z,5.28
2018-04-22T18:27:56.228Z,5.93
2018-04-22T18:30:25.338Z,6.03
2018-04-22T18:32:54.125Z,5.28
2018-04-22T18:35:22.931Z,8.60
2018-04-22T18:37:51.811Z,5.25
2018-04-22T18:40:20.574Z,7.10
2018-04-22T18:42:49.751Z,11.83
2018-04-22T18:45:18.550Z,7.70
2018-04-22T18:47:47.347Z,8.43
2018-04-22T18:50:16.187Z,7.07
2018-04-22T18:52:45.000Z,9.63
2018-04-22T18:55:13.793Z,9.10
2018-04-22T18:57:42.668Z,6.63
2018-04-22T19:00:11.507Z,7.27
2018-04-22T19:02:40.418Z,8.97
2018-04-22T19:05:09.266Z,6.87
2018-04-22T19:07:38.849Z,10.13
2018-04-22T19:10:07.642Z,6.57
2018-04-22T19:12:36.775Z,7.80
2018-04-22T19:15:05.586Z,5.13
2018-04-22T19:17:34.460Z,7.30
2018-04-22T19:20:03.482Z,8.13
2018-04-22T19:22:32.342Z,6.50
2018-04-22T19:25:01.148Z,6.77
2018-04-22T19:27:30.039Z,5.80
2018-04-22T19:29:58.838Z,5.70
2018-04-22T19:32:27.706Z,6.30
2018-04-22T19:34:56.564Z,5.20
2018-04-22T19:37:25.386Z,6.23
2018-04-22T19:39:54.284Z,6.47
2018-04-22T19:42:24.196Z,7.37
2018-04-22T19:44:53.019Z,5.10
2018-04-22T19:47:21.889Z,7.87
2018-04-22T19:49:50.676Z,6.97
2018-04-22T19:52:19.542Z,6.90
2018-04-22T19:54:48.340Z,8.40
2018-04-22T19:57:17.135Z,6.97
2018-04-22T19:59:47.052Z,6.37
2018-04-22T20:02:15.865Z,6.93
2018-04-22T20:04:45.023Z,7.53
2018-04-22T20:07:13.816Z,8.50
2018-04-22T20:09:45.023Z,16.00
2018-04-22T20:12:13.818Z,8.50
2018-04-22T20:14:42.638Z,6.90
2018-04-22T20:17:12.564Z,5.17
2018-04-22T20:19:41.359Z,6.43
2018-04-22T20:22:10.253Z,6.43
2018-04-22T20:27:13.488Z,8.87
2018-04-22T20:29:42.388Z,7.00
2018-04-22T20:32:11.261Z,6.83
2018-04-22T20:34:40.058Z,5.10
2018-04-22T20:37:09.027Z,6.37
2018-04-22T20:39:37.811Z,8.03
2018-04-22T20:42:06.602Z,7.00
2018-04-22T20:44:35.500Z,7.57
2018-04-22T20:47:04.297Z,5.50
2018-04-22T20:49:33.094Z,7.67
2018-04-22T20:52:02.323Z,9.67
2018-04-22T20:54:31.123Z,7.53
2018-04-22T20:56:59.922Z,8.53
2018-04-22T20:59:28.823Z,8.07
2018-04-22T21:01:57.721Z,7.17
2018-04-22T21:04:26.522Z,7.10
2018-04-22T21:06:55.385Z,10.37
2018-04-22T21:09:24.183Z,8.37
2018-04-22T21:11:53.976Z,7.23
2018-04-22T21:14:22.794Z,7.97
2018-04-22T21:16:51.699Z,8.17
2018-04-22T21:19:20.573Z,7.50
2018-04-22T21:21:49.366Z,6.43
2018-04-22T21:24:18.264Z,8.97
2018-04-22T21:26:47.346Z,8.30
2018-04-22T21:29:16.247Z,6.77
2018-04-22T21:31:45.043Z,7.33
2018-04-22T21:34:13.859Z,6.97
2018-04-22T21:36:42.715Z,8.53
2018-04-22T21:39:11.820Z,7.13
2018-04-22T21:41:40.606Z,6.00
2018-04-22T21:44:09.394Z,8.07
2018-04-22T21:46:38.222Z,9.43
2018-04-22T21:49:07.034Z,10.50
2018-04-22T21:51:35.817Z,9.33
2018-04-22T21:54:04.654Z,8.67
2018-04-22T21:56:33.554Z,9.67
2018-04-22T21:59:02.343Z,8.80
2018-04-22T22:01:31.143Z,8.67
2018-04-22T22:04:00.003Z,5.43
2018-04-22T22:06:28.830Z,9.30
2018-04-22T22:08:58.935Z,7.93
2018-04-22T22:11:27.814Z,8.30
2018-04-22T22:13:56.794Z,6.83
2018-04-22T22:16:25.602Z,7.50
2018-04-22T22:18:54.474Z,9.17
2018-04-22T22:21:23.703Z,11.53
2018-04-22T22:23:52.505Z,10.70
2018-04-22T22:26:21.296Z,9.00
2018-04-22T22:28:50.341Z,8.63
2018-04-22T22:31:19.142Z,12.83
2018-04-22T22:33:48.023Z,8.33
2018-04-22T22:36:17.218Z,6.77
2018-04-22T22:38:46.015Z,11.07
2018-04-22T22:41:14.901Z,9.57
2018-04-22T22:43:44.464Z,9.03
2018-04-22T22:46:13.269Z,7.40
2018-04-22T22:48:42.295Z,8.83
2018-04-22T22:51:11.182Z,7.20
2018-04-22T22:53:39.982Z,10.37
2018-04-22T22:56:08.834Z,11.37
2018-04-22T22:58:37.639Z,8.17
2018-04-22T23:01:06.430Z,9.43
2018-04-22T23:03:35.433Z,11.00
2018-04-22T23:06:04.326Z,8.47
2018-04-22T23:08:33.121Z,6.40
2018-04-22T23:11:01.949Z,8.87
2018-04-22T23:13:30.751Z,8.53
2018-04-22T23:16:00.383Z,9.30
2018-04-22T23:18:29.220Z,9.30
2018-04-22T23:20:58.010Z,9.57
2018-04-22T23:23:26.816Z,9.20
2018-04-22T23:25:55.663Z,7.27
2018-04-22T23:28:24.461Z,11.93
2018-04-22T23:30:53.345Z,10.63
2018-04-22T23:33:22.259Z,7.47
2018-04-22T23:35:51.053Z,7.23
2018-04-22T23:38:20.131Z,7.20
2018-04-22T23:40:48.924Z,8.97
2018-04-22T23:43:17.736Z,8.23
2018-04-22T23:45:46.593Z,7.37
2018-04-22T23:48:15.489Z,7.30
2018-04-22T23:50:44.330Z,7.03
2018-04-22T23:53:13.112Z,8.83
2018-04-22T23:55:41.905Z,10.63
2018-04-22T23:58:10.937Z,6.40
